Time;durP1;ratioP1;P1;durP2;ratioP2;P2;SDS_P1;SDS_P2;PMS_P1;PMS_P2;Temp;Humidity;BMP_temperature;BMP_pressure;BME280_temperature;BME280_humidity;BME280_pressure;Samples;Min_cycle;Max_cycle;Signal;HPM_P1;HPM_P2
2023/09/25 00:00:24;;;;;;;1.50;0.90;;;14.60;98.20;;;;;;4961040;28;20490;-81
2023/09/25 00:02:51;;;;;;;1.50;1.20;;;14.50;98.20;;;;;;4949557;28;20510;-81
2023/09/25 00:05:18;;;;;;;1.47;1.00;;;14.50;98.20;;;;;;4961713;28;20493;-79
2023/09/25 00:07:45;;;;;;;1.47;1.00;;;14.50;98.20;;;;;;4951264;28;20478;-80
2023/09/25 00:10:12;;;;;;;1.40;1.00;;;14.50;98.20;;;;;;4968980;28;20470;-80
2023/09/25 00:12:39;;;;;;;1.50;1.10;;;14.50;98.20;;;;;;4944722;28;20514;-80
2023/09/25 00:15:06;;;;;;;1.50;1.00;;;14.50;98.20;;;;;;4965708;28;20516;-79
2023/09/25 00:17:34;;;;;;;1.50;1.00;;;14.50;98.20;;;;;;4951815;28;20479;-79
2023/09/25 00:20:03;;;;;;;1.47;1.00;;;14.40;98.20;;;;;;4969220;28;20489;-79
2023/09/25 00:22:30;;;;;;;1.50;1.10;;;14.40;98.20;;;;;;4943234;28;21156;-80
2023/09/25 00:24:57;;;;;;;1.50;1.00;;;14.40;98.20;;;;;;4955665;28;20489;-77
2023/09/25 00:27:24;;;;;;;1.43;1.00;;;14.40;98.20;;;;;;4941482;28;20502;-77
2023/09/25 00:29:51;;;;;;;1.50;1.00;;;14.40;98.20;;;;;;4957967;28;20465;-77
2023/09/25 00:32:18;;;;;;;1.50;1.00;;;14.40;98.20;;;;;;4948600;28;20478;-78
2023/09/25 00:34:46;;;;;;;1.50;1.00;;;14.30;98.20;;;;;;4970392;28;20530;-77
2023/09/25 00:37:14;;;;;;;1.50;1.00;;;14.30;98.20;;;;;;4954067;28;20483;-78
2023/09/25 00:39:42;;;;;;;1.50;1.00;;;14.40;98.20;;;;;;4962803;28;20462;-77
2023/09/25 00:42:10;;;;;;;1.50;1.00;;;14.30;98.20;;;;;;4954342;28;20482;-76
2023/09/25 00:44:36;;;;;;;1.50;1.00;;;14.30;98.20;;;;;;4972154;28;20515;-78
2023/09/25 00:47:04;;;;;;;1.50;1.00;;;14.30;98.20;;;;;;4949589;28;20542;-78
2023/09/25 00:49:32;;;;;;;1.50;1.00;;;14.30;98.20;;;;;;4961326;28;20493;-79
2023/09/25 00:52:01;;;;;;;1.50;1.00;;;14.20;98.20;;;;;;4956521;28;20486;-78
2023/09/25 00:54:30;;;;;;;1.50;1.10;;;14.20;98.20;;;;;;4958669;28;20501;-78
2023/09/25 00:56:58;;;;;;;1.47;1.00;;;14.20;98.20;;;;;;4949203;28;20490;-78
2023/09/25 00:59:25;;;;;;;1.50;1.00;;;14.20;98.20;;;;;;4961286;28;20458;-77
2023/09/25 01:01:52;;;;;;;1.50;1.00;;;14.20;98.20;;;;;;4947036;28;20482;-77
2023/09/25 01:04:21;;;;;;;1.50;1.00;;;14.20;98.20;;;;;;4948223;28;20482;-77
2023/09/25 01:06:50;;;;;;;1.50;1.00;;;14.20;98.20;;;;;;4952193;28;20541;-77
2023/09/25 01:09:18;;;;;;;1.50;1.00;;;14.10;98.20;;;;;;4949201;28;20484;-78
2023/09/25 01:11:45;;;;;;;1.50;1.00;;;14.10;98.20;;;;;;4945585;28;20565;-77
2023/09/25 01:14:12;;;;;;;1.43;1.00;;;14.10;98.20;;;;;;4948558;28;20558;-78
2023/09/25 01:16:39;;;;;;;1.50;1.00;;;14.10;98.20;;;;;;4947764;28;20485;-78
2023/09/25 01:19:06;;;;;;;1.50;1.00;;;14.10;98.20;;;;;;4955066;28;20465;-77
2023/09/25 01:21:34;;;;;;;1.47;1.00;;;14.10;98.20;;;;;;4941278;28;20516;-77
2023/09/25 01:24:03;;;;;;;1.50;1.00;;;14.10;98.20;;;;;;4948069;28;20479;-77
2023/09/25 01:26:32;;;;;;;1.50;1.00;;;14.10;98.20;;;;;;4944685;28;20601;-78
2023/09/25 01:28:59;;;;;;;1.50;1.10;;;14.10;98.20;;;;;;4951830;28;20486;-77
2023/09/25 01:31:26;;;;;;;1.50;1.00;;;14.10;98.20;;;;;;4948432;28;21023;-77
2023/09/25 01:33:52;;;;;;;1.50;1.00;;;14.10;98.20;;;;;;4956165;28;20485;-79
2023/09/25 01:36:28;;;;;;;1.50;1.20;;;14.10;98.20;;;;;;4956363;28;21138;-78
2023/09/25 01:38:56;;;;;;;1.50;1.03;;;14.00;98.20;;;;;;4946675;28;20977;-78
2023/09/25 01:41:24;;;;;;;1.50;1.10;;;14.00;98.20;;;;;;4953596;28;20560;-77
2023/09/25 01:43:51;;;;;;;1.50;1.00;;;14.00;98.20;;;;;;4961755;28;20473;-78
2023/09/25 01:46:18;;;;;;;1.50;1.00;;;14.00;98.20;;;;;;4953201;28;20480;-78
2023/09/25 01:48:44;;;;;;;1.50;1.00;;;13.90;98.20;;;;;;4954362;28;20492;-77
2023/09/25 01:51:11;;;;;;;1.50;1.00;;;13.90;98.20;;;;;;4951749;28;20490;-78
2023/09/25 01:53:38;;;;;;;1.50;1.00;;;13.90;98.20;;;;;;4952964;28;20489;-77
2023/09/25 01:56:15;;;;;;;1.80;1.40;;;13.90;98.20;;;;;;4951377;28;21006;-77
2023/09/25 01:58:44;;;;;;;1.50;1.00;;;13.90;98.20;;;;;;4946039;28;20488;-77
2023/09/25 02:01:11;;;;;;;1.50;1.00;;;13.80;98.20;;;;;;4947882;28;20488;-77
2023/09/25 02:03:38;;;;;;;2.00;1.70;;;13.80;98.20;;;;;;4946786;28;20494;-78
2023/09/25 02:06:05;;;;;;;1.50;1.10;;;13.80;98.20;;;;;;4950700;28;20474;-77
2023/09/25 02:08:32;;;;;;;1.50;1.00;;;13.80;98.20;;;;;;4956885;28;20490;-77
2023/09/25 02:10:59;;;;;;;1.50;1.00;;;13.80;98.20;;;;;;4953703;28;20492;-77
2023/09/25 02:13:26;;;;;;;1.50;1.07;;;13.80;98.20;;;;;;4950742;28;20494;-78
2023/09/25 02:15:54;;;;;;;1.50;0.90;;;13.80;98.20;;;;;;4951099;28;20466;-78
2023/09/25 02:18:21;;;;;;;1.50;1.00;;;13.80;98.20;;;;;;4945396;28;20460;-77
2023/09/25 02:20:48;;;;;;;1.50;1.10;;;13.70;98.20;;;;;;4961418;28;20458;-78
2023/09/25 02:23:15;;;;;;;1.50;1.00;;;13.70;98.20;;;;;;4955051;28;20471;-80
2023/09/25 02:25:41;;;;;;;1.50;1.10;;;13.70;98.20;;;;;;4968131;28;20546;-80
2023/09/25 02:28:09;;;;;;;1.50;1.10;;;13.70;98.20;;;;;;4942858;28;20485;-79
2023/09/25 02:30:36;;;;;;;1.47;1.00;;;13.70;98.20;;;;;;4977115;28;20469;-80
2023/09/25 02:33:04;;;;;;;1.50;1.10;;;13.70;98.20;;;;;;4950245;28;20506;-79
2023/09/25 02:35:32;;;;;;;1.50;1.10;;;13.60;98.20;;;;;;4973650;28;20507;-80
2023/09/25 02:38:06;;;;;;;1.50;1.00;;;13.50;98.20;;;;;;4944413;28;20710;-80
2023/09/25 02:40:33;;;;;;;1.50;1.00;;;13.50;98.20;;;;;;4975416;28;20487;-81
2023/09/25 02:43:00;;;;;;;1.50;1.00;;;13.50;98.20;;;;;;4950130;28;20493;-81
2023/09/25 02:45:27;;;;;;;1.50;1.00;;;13.50;98.20;;;;;;4976079;28;21046;-80
2023/09/25 02:47:54;;;;;;;1.50;1.00;;;13.50;98.20;;;;;;4938237;28;20486;-80
2023/09/25 02:50:22;;;;;;;1.50;1.00;;;13.50;98.20;;;;;;4969441;28;20491;-80
2023/09/25 02:52:49;;;;;;;1.50;1.10;;;13.50;98.20;;;;;;4949414;28;20558;-80
2023/09/25 02:55:15;;;;;;;1.50;1.00;;;13.40;98.20;;;;;;4973275;28;20499;-80
2023/09/25 02:57:43;;;;;;;1.50;1.00;;;13.50;98.20;;;;;;4948065;28;20478;-82
2023/09/25 03:00:11;;;;;;;1.50;1.30;;;13.40;98.20;;;;;;4978765;28;20522;-79
2023/09/25 03:02:38;;;;;;;1.50;1.10;;;13.40;98.20;;;;;;4952175;28;20493;-80
2023/09/25 03:05:06;;;;;;;1.50;1.10;;;13.40;98.20;;;;;;4971518;28;20484;-81
2023/09/25 03:07:34;;;;;;;1.50;1.00;;;13.40;98.20;;;;;;4944631;28;20476;-79
2023/09/25 03:10:01;;;;;;;1.50;1.10;;;13.30;98.20;;;;;;4977432;28;20497;-81
2023/09/25 03:12:29;;;;;;;1.50;1.10;;;13.30;98.20;;;;;;4949604;28;20491;-80
2023/09/25 03:14:56;;;;;;;1.50;1.00;;;13.30;98.20;;;;;;4977876;28;20477;-80
2023/09/25 03:17:23;;;;;;;1.50;1.03;;;13.30;98.20;;;;;;4943399;28;20563;-80
2023/09/25 03:19:52;;;;;;;1.50;1.10;;;13.30;98.20;;;;;;4969544;28;20522;-79
2023/09/25 03:22:19;;;;;;;1.50;1.00;;;13.20;98.20;;;;;;4950106;28;20494;-80
2023/09/25 03:24:48;;;;;;;1.50;1.10;;;13.30;98.20;;;;;;4966342;28;20478;-79
2023/09/25 03:27:15;;;;;;;1.50;1.00;;;13.30;98.20;;;;;;4949673;28;21077;-78
2023/09/25 03:29:42;;;;;;;1.50;1.00;;;13.20;98.20;;;;;;4966706;28;20550;-79
2023/09/25 03:32:10;;;;;;;1.50;1.10;;;13.20;98.20;;;;;;4954085;28;20479;-80
2023/09/25 03:34:37;;;;;;;1.50;1.00;;;13.20;98.20;;;;;;4963703;28;20521;-80
2023/09/25 03:37:04;;;;;;;1.50;1.00;;;13.20;98.20;;;;;;4945807;28;20484;-79
2023/09/25 03:39:31;;;;;;;1.50;1.00;;;13.20;98.20;;;;;;4959275;28;20467;-79
2023/09/25 03:41:59;;;;;;;1.50;1.00;;;13.20;98.20;;;;;;4949551;28;20490;-79
2023/09/25 03:44:30;;;;;;;1.50;1.10;;;13.20;98.20;;;;;;4954316;28;20502;-79
2023/09/25 03:46:57;;;;;;;1.50;1.10;;;13.20;98.20;;;;;;4960622;28;20578;-79
2023/09/25 03:49:24;;;;;;;1.50;1.10;;;13.20;98.20;;;;;;4954488;28;20505;-79
2023/09/25 03:51:50;;;;;;;1.50;1.10;;;13.20;98.20;;;;;;4934730;28;20586;-79
2023/09/25 03:54:17;;;;;;;1.50;1.00;;;13.20;98.20;;;;;;4961415;28;20698;-80
2023/09/25 03:56:44;;;;;;;1.50;1.10;;;13.20;98.20;;;;;;4946649;28;20506;-80
2023/09/25 03:59:12;;;;;;;1.50;1.00;;;13.20;98.20;;;;;;4957159;28;20477;-80
2023/09/25 04:01:39;;;;;;;1.50;1.00;;;13.20;98.20;;;;;;4954576;28;20491;-80
2023/09/25 04:04:07;;;;;;;1.50;1.10;;;13.20;98.20;;;;;;4953719;28;20551;-80
2023/09/25 04:06:37;;;;;;;1.50;1.00;;;13.20;98.20;;;;;;4946097;28;20479;-80
2023/09/25 04:09:06;;;;;;;1.50;1.10;;;13.10;98.20;;;;;;4950327;28;20679;-79
2023/09/25 04:11:33;;;;;;;1.50;1.00;;;13.10;98.20;;;;;;4941093;28;20491;-78
2023/09/25 04:14:00;;;;;;;1.50;1.10;;;13.10;98.20;;;;;;4952173;28;20871;-77
2023/09/25 04:16:28;;;;;;;1.50;1.10;;;13.10;98.20;;;;;;4948584;28;20476;-79
2023/09/25 04:18:55;;;;;;;1.60;1.30;;;13.10;98.20;;;;;;4949422;28;20841;-79
2023/09/25 04:21:22;;;;;;;1.50;1.10;;;13.10;98.20;;;;;;4959950;28;20531;-80
2023/09/25 04:23:49;;;;;;;1.50;1.10;;;13.10;98.20;;;;;;4954806;28;20479;-80
2023/09/25 04:26:16;;;;;;;1.50;1.10;;;13.10;98.20;;;;;;4947358;28;21069;-80
2023/09/25 04:28:43;;;;;;;1.50;1.10;;;13.00;98.20;;;;;;4947037;28;20499;-78
2023/09/25 04:31:11;;;;;;;1.50;1.10;;;13.00;98.20;;;;;;4955223;28;20489;-78
2023/09/25 04:33:40;;;;;;;1.50;1.10;;;13.00;98.20;;;;;;4942758;28;20499;-80
2023/09/25 04:36:10;;;;;;;1.50;1.00;;;13.00;98.20;;;;;;4943231;28;20487;-80
2023/09/25 04:38:48;;;;;;;1.50;1.10;;;13.00;98.20;;;;;;4957186;28;20521;-80
2023/09/25 04:41:17;;;;;;;1.50;1.03;;;13.00;98.20;;;;;;4944749;28;20471;-79
2023/09/25 04:43:47;;;;;;;1.50;1.00;;;13.00;98.20;;;;;;4945371;28;20495;-80
2023/09/25 04:46:14;;;;;;;1.50;1.10;;;13.00;98.20;;;;;;4938722;28;20979;-77
2023/09/25 04:48:45;;;;;;;1.50;1.00;;;13.00;98.20;;;;;;4947794;28;20466;-78
2023/09/25 04:51:13;;;;;;;1.50;1.00;;;13.00;98.20;;;;;;4937863;28;20483;-78
2023/09/25 04:53:40;;;;;;;1.50;1.10;;;13.00;98.20;;;;;;4942290;28;20599;-77
2023/09/25 04:56:10;;;;;;;1.50;1.10;;;13.00;98.20;;;;;;4943381;28;20480;-80
2023/09/25 04:58:39;;;;;;;1.50;1.20;;;13.00;98.20;;;;;;4940470;28;20459;-78
2023/09/25 05:01:06;;;;;;;1.50;1.03;;;13.00;98.20;;;;;;4954174;28;29323;-80
2023/09/25 05:03:33;;;;;;;1.50;1.10;;;13.00;98.20;;;;;;4945476;28;20464;-80
2023/09/25 05:06:02;;;;;;;1.50;1.00;;;13.00;98.20;;;;;;4953087;28;20486;-78
2023/09/25 05:08:29;;;;;;;1.50;1.10;;;13.00;98.20;;;;;;4945971;28;20534;-80
2023/09/25 05:10:58;;;;;;;1.50;1.10;;;13.00;98.20;;;;;;4941297;28;20479;-81
2023/09/25 05:13:25;;;;;;;1.50;1.07;;;13.00;98.20;;;;;;4947515;28;20464;-81
2023/09/25 05:15:52;;;;;;;1.50;1.07;;;13.00;98.20;;;;;;4941873;28;20462;-80
2023/09/25 05:18:19;;;;;;;1.50;1.10;;;13.00;98.20;;;;;;4944005;28;20527;-79
2023/09/25 05:20:45;;;;;;;1.50;1.10;;;13.00;98.20;;;;;;4961258;28;21203;-81
2023/09/25 05:23:18;;;;;;;1.50;1.00;;;13.00;98.20;;;;;;4923939;28;20476;-78
2023/09/25 05:25:45;;;;;;;1.50;1.10;;;13.00;98.20;;;;;;4959009;28;20462;-78
2023/09/25 05:28:12;;;;;;;1.50;1.20;;;13.00;98.20;;;;;;4926729;28;20495;-80
2023/09/25 05:30:39;;;;;;;1.50;1.00;;;13.00;98.20;;;;;;4956863;28;20486;-80
2023/09/25 05:33:06;;;;;;;1.47;1.00;;;13.00;98.20;;;;;;4931148;29;20484;-78
2023/09/25 05:35:38;;;;;;;1.50;1.10;;;13.00;98.20;;;;;;4973793;28;21022;-78
2023/09/25 05:38:05;;;;;;;1.50;1.00;;;13.00;98.20;;;;;;4927018;28;20835;-82
2023/09/25 05:40:33;;;;;;;1.50;1.00;;;13.00;98.20;;;;;;4952838;28;20459;-78
2023/09/25 05:43:00;;;;;;;1.47;1.00;;;13.00;98.20;;;;;;4945811;28;20506;-78
2023/09/25 05:45:27;;;;;;;1.50;1.00;;;13.10;98.20;;;;;;4947766;28;20514;-77
2023/09/25 05:47:54;;;;;;;1.50;1.10;;;13.10;98.20;;;;;;4931502;28;20483;-79
2023/09/25 05:50:20;;;;;;;1.50;1.00;;;13.10;98.20;;;;;;4953851;28;20491;-78
2023/09/25 05:52:47;;;;;;;1.50;1.07;;;13.10;98.20;;;;;;4935505;29;21005;-80
2023/09/25 05:55:14;;;;;;;1.50;1.00;;;13.20;98.20;;;;;;4954523;28;20489;-77
2023/09/25 05:57:42;;;;;;;1.47;0.90;;;13.20;98.20;;;;;;4938030;28;20482;-79
2023/09/25 06:00:11;;;;;;;1.47;1.00;;;13.20;98.20;;;;;;4956404;28;21116;-78
2023/09/25 06:02:38;;;;;;;1.50;1.00;;;13.30;98.20;;;;;;4943236;28;21449;-77
2023/09/25 06:05:08;;;;;;;1.50;1.03;;;13.30;98.20;;;;;;4944239;28;20490;-77
2023/09/25 06:07:36;;;;;;;1.50;1.00;;;13.30;98.20;;;;;;4936603;28;20559;-79
2023/09/25 06:10:04;;;;;;;1.50;1.00;;;13.40;98.20;;;;;;4948522;28;20481;-78
2023/09/25 06:12:31;;;;;;;1.50;1.00;;;13.50;98.20;;;;;;4941949;28;20562;-78
2023/09/25 06:14:59;;;;;;;1.50;1.00;;;13.50;98.20;;;;;;4952048;28;20551;-79
2023/09/25 06:17:26;;;;;;;1.50;1.07;;;13.60;98.20;;;;;;4943267;28;20660;-80
2023/09/25 06:19:54;;;;;;;1.50;1.00;;;13.70;98.20;;;;;;4954599;28;20459;-78
2023/09/25 06:22:51;;;;;;;1.50;1.10;;;13.80;98.20;;;;;;4947855;28;20865;-78
2023/09/25 06:25:18;;;;;;;1.50;1.00;;;14.00;98.20;;;;;;4955602;28;20478;-78
2023/09/25 06:27:45;;;;;;;1.50;1.00;;;14.10;98.20;;;;;;4943356;28;20510;-77
2023/09/25 06:30:15;;;;;;;1.50;1.00;;;14.20;98.20;;;;;;4950360;28;20501;-79
2023/09/25 06:32:42;;;;;;;1.50;1.00;;;14.20;98.20;;;;;;4946476;28;20582;-77
2023/09/25 06:35:10;;;;;;;1.50;1.10;;;14.20;98.20;;;;;;4954861;28;20550;-78
2023/09/25 06:37:36;;;;;;;1.50;1.00;;;14.30;98.20;;;;;;4945997;28;20487;-80
2023/09/25 06:40:09;;;;;;;1.50;1.10;;;14.50;98.20;;;;;;4957571;28;20466;-78
2023/09/25 06:42:36;;;;;;;1.50;1.10;;;14.60;98.20;;;;;;4941494;28;20486;-78
2023/09/25 06:45:03;;;;;;;1.50;1.10;;;14.80;98.20;;;;;;4956815;28;20475;-78
2023/09/25 06:47:33;;;;;;;1.50;1.00;;;14.90;98.20;;;;;;4942335;28;20479;-78
2023/09/25 06:50:00;;;;;;;1.50;1.03;;;15.00;98.20;;;;;;4954228;28;20961;-77
2023/09/25 06:52:26;;;;;;;1.50;1.00;;;15.10;98.20;;;;;;4939928;28;20484;-77
2023/09/25 06:54:54;;;;;;;1.50;1.10;;;15.20;98.20;;;;;;4951096;28;20893;-76
2023/09/25 06:57:21;;;;;;;1.50;1.00;;;15.30;98.20;;;;;;4934552;28;20494;-77
2023/09/25 06:59:48;;;;;;;1.50;1.10;;;15.40;98.20;;;;;;4948482;28;20853;-77
2023/09/25 07:02:20;;;;;;;1.50;0.93;;;15.50;98.20;;;;;;4937475;28;20489;-79
2023/09/25 07:04:48;;;;;;;1.50;1.00;;;15.50;98.20;;;;;;4943688;29;20518;-78
2023/09/25 07:07:15;;;;;;;1.50;1.00;;;15.60;98.20;;;;;;4936735;28;20498;-78
2023/09/25 07:09:42;;;;;;;1.50;1.00;;;15.60;98.20;;;;;;4947570;28;20464;-77
2023/09/25 07:12:12;;;;;;;2.00;1.50;;;15.60;98.20;;;;;;4939169;28;20882;-78
2023/09/25 07:14:39;;;;;;;1.60;1.20;;;15.70;98.20;;;;;;4948566;29;20578;-77
2023/09/25 07:17:06;;;;;;;1.50;1.00;;;15.90;98.20;;;;;;4940463;28;20513;-76
2023/09/25 07:19:33;;;;;;;1.50;0.90;;;15.90;98.20;;;;;;4946542;29;20478;-77
2023/09/25 07:22:01;;;;;;;1.50;0.97;;;16.00;98.20;;;;;;4942909;28;20558;-77
2023/09/25 07:24:28;;;;;;;1.50;1.10;;;16.20;98.20;;;;;;4944662;29;20938;-77
2023/09/25 07:26:55;;;;;;;1.50;0.97;;;16.20;98.20;;;;;;4939832;28;20487;-77
2023/09/25 07:29:23;;;;;;;1.50;1.00;;;16.30;98.20;;;;;;4943022;29;20468;-80
2023/09/25 07:31:51;;;;;;;1.50;1.00;;;16.30;98.20;;;;;;4930558;28;20563;-77
2023/09/25 07:34:18;;;;;;;1.50;0.90;;;16.30;98.20;;;;;;4939703;29;20478;-79
2023/09/25 07:36:45;;;;;;;1.50;1.00;;;16.40;98.20;;;;;;4935226;28;21396;-78
2023/09/25 07:39:13;;;;;;;1.43;0.90;;;16.50;98.20;;;;;;4946363;28;20463;-76
2023/09/25 07:41:40;;;;;;;1.50;0.90;;;16.60;98.20;;;;;;4934877;28;20474;-79
2023/09/25 07:44:11;;;;;;;1.50;1.00;;;16.60;98.20;;;;;;4946465;29;20517;-78
2023/09/25 07:46:38;;;;;;;1.50;0.97;;;16.70;98.20;;;;;;4926311;29;20491;-80
2023/09/25 07:49:06;;;;;;;1.50;0.90;;;16.80;98.20;;;;;;4944173;29;20549;-77
2023/09/25 07:51:33;;;;;;;1.50;1.10;;;16.90;98.20;;;;;;4935996;28;20482;-77
2023/09/25 07:54:02;;;;;;;1.50;1.00;;;17.00;98.20;;;;;;4947376;29;20520;-78
2023/09/25 07:56:31;;;;;;;1.50;1.00;;;17.20;98.20;;;;;;4937826;28;20562;-77
2023/09/25 07:58:58;;;;;;;1.40;0.90;;;17.30;98.20;;;;;;4948174;29;20573;-78
2023/09/25 08:01:29;;;;;;;1.50;0.90;;;17.40;98.00;;;;;;4937075;28;20719;-77
2023/09/25 08:03:55;;;;;;;1.50;1.10;;;17.40;97.80;;;;;;4945816;29;20918;-78
2023/09/25 08:06:24;;;;;;;1.50;0.90;;;17.40;97.80;;;;;;4937654;28;20486;-77
2023/09/25 08:09:20;;;;;;;1.50;1.00;;;17.50;97.70;;;;;;4945983;29;20499;-79
2023/09/25 08:11:50;;;;;;;1.50;1.00;;;17.60;96.90;;;;;;4939787;28;20495;-78
2023/09/25 08:14:17;;;;;;;1.50;1.00;;;17.60;96.70;;;;;;4950911;29;20526;-77
2023/09/25 08:16:44;;;;;;;1.43;0.90;;;17.60;96.80;;;;;;4933798;28;20491;-78
2023/09/25 08:19:26;;;;;;;1.50;1.00;;;17.60;97.00;;;;;;5035353;28;20587;-77
2023/09/25 08:21:53;;;;;;;1.50;0.90;;;17.70;96.90;;;;;;5018763;28;20546;-77
2023/09/25 08:24:20;;;;;;;1.47;0.90;;;17.80;96.30;;;;;;5002401;28;20487;-77
2023/09/25 08:26:47;;;;;;;1.50;1.00;;;17.90;96.00;;;;;;4986127;28;20488;-78
2023/09/25 08:29:15;;;;;;;1.50;0.90;;;17.90;95.20;;;;;;4996517;28;20467;-78
2023/09/25 08:31:43;;;;;;;1.50;0.90;;;17.90;95.70;;;;;;4986609;28;20531;-78
2023/09/25 08:34:10;;;;;;;1.47;0.90;;;18.00;96.40;;;;;;5000410;28;20532;-79
2023/09/25 08:36:39;;;;;;;1.50;1.00;;;18.10;96.30;;;;;;4983668;28;21172;-77
2023/09/25 08:39:08;;;;;;;1.50;0.90;;;18.20;95.80;;;;;;4997598;28;20485;-78
2023/09/25 08:41:35;;;;;;;1.50;0.90;;;18.30;95.20;;;;;;4981050;28;20491;-78
2023/09/25 08:44:03;;;;;;;1.47;0.90;;;18.40;95.30;;;;;;4994953;28;20568;-77
2023/09/25 08:46:30;;;;;;;1.50;0.90;;;18.50;95.20;;;;;;4979981;28;21054;-77
2023/09/25 08:48:59;;;;;;;1.50;0.90;;;18.60;94.90;;;;;;4995316;28;20460;-78
2023/09/25 08:51:26;;;;;;;1.50;1.00;;;18.60;95.10;;;;;;4986272;28;20540;-78
2023/09/25 08:53:54;;;;;;;1.50;1.00;;;18.70;94.70;;;;;;5002413;28;20482;-78
2023/09/25 08:56:22;;;;;;;1.50;1.00;;;18.80;95.20;;;;;;4986923;28;20476;-78
2023/09/25 08:58:51;;;;;;;1.50;0.90;;;18.90;94.20;;;;;;5007632;28;20864;-77
2023/09/25 09:01:18;;;;;;;1.43;0.90;;;19.00;94.20;;;;;;4985920;28;20915;-76
2023/09/25 09:03:45;;;;;;;1.50;0.90;;;19.10;93.50;;;;;;4997250;28;20488;-77
2023/09/25 09:06:12;;;;;;;1.47;0.90;;;19.20;92.60;;;;;;4981435;28;20508;-78
2023/09/25 09:08:43;;;;;;;1.50;0.90;;;19.30;93.40;;;;;;4996890;28;20896;-77
2023/09/25 09:11:12;;;;;;;1.50;0.90;;;19.40;93.00;;;;;;4978981;28;20484;-79
2023/09/25 09:13:46;;;;;;;1.50;0.90;;;19.60;93.00;;;;;;4993635;28;20898;-79
2023/09/25 09:16:14;;;;;;;1.50;0.90;;;19.90;93.40;;;;;;4981681;28;20487;-82
2023/09/25 09:18:41;;;;;;;1.50;0.90;;;20.10;90.80;;;;;;4994480;28;20584;-76
2023/09/25 09:21:21;;;;;;;1.50;0.90;;;20.30;89.60;;;;;;4977983;28;20479;-79
2023/09/25 09:23:48;;;;;;;1.50;0.90;;;20.40;88.30;;;;;;4981883;28;20487;-76
2023/09/25 09:26:17;;;;;;;1.47;0.90;;;20.40;88.70;;;;;;4980285;28;20488;-77
2023/09/25 09:28:44;;;;;;;1.50;1.00;;;20.50;89.30;;;;;;5000229;28;20552;-79
2023/09/25 09:31:11;;;;;;;1.50;0.90;;;20.60;89.30;;;;;;4972473;28;20477;-77
2023/09/25 09:33:42;;;;;;;1.47;0.90;;;20.70;87.70;;;;;;4986730;28;20724;-81
2023/09/25 09:36:09;;;;;;;1.43;0.90;;;20.70;87.20;;;;;;4961237;28;20478;-78
2023/09/25 09:39:25;;;;;;;1.43;0.90;;;20.90;87.70;;;;;;4975027;28;20540;-83
2023/09/25 09:41:55;;;;;;;1.47;0.90;;;21.10;87.40;;;;;;4969085;28;20481;-82
2023/09/25 09:44:22;;;;;;;1.47;0.90;;;21.20;85.20;;;;;;4979218;28;20573;-81
2023/09/25 09:46:50;;;;;;;1.47;0.87;;;21.30;86.40;;;;;;4970363;28;22888;-80
2023/09/25 09:49:21;;;;;;;1.50;0.90;;;21.40;85.40;;;;;;4980456;28;20472;-78
2023/09/25 09:52:19;;;;;;;1.43;0.83;;;21.50;86.20;;;;;;4969684;28;20466;-82
2023/09/25 09:55:09;;;;;;;1.43;0.90;;;21.60;86.10;;;;;;4963254;28;20599;-85
2023/09/25 09:57:37;;;;;;;1.50;0.90;;;21.90;84.50;;;;;;4978492;28;20543;-82
2023/09/25 10:00:06;;;;;;;1.47;0.90;;;22.00;85.30;;;;;;4986830;28;20471;-82
2023/09/25 10:02:33;;;;;;;1.43;0.87;;;22.00;84.70;;;;;;4986025;28;20480;-83
2023/09/25 10:05:01;;;;;;;1.47;0.90;;;22.10;83.60;;;;;;4970658;28;20573;-79
2023/09/25 10:07:38;;;;;;;1.47;0.90;;;22.30;82.80;;;;;;4974537;28;21304;-81
2023/09/25 10:10:08;;;;;;;1.47;0.90;;;22.40;82.80;;;;;;4968799;28;20480;-84
2023/09/25 10:12:40;;;;;;;1.50;0.80;;;22.50;82.30;;;;;;4973583;28;20548;-82
2023/09/25 10:15:11;;;;;;;1.50;0.90;;;22.50;82.40;;;;;;4971643;28;20484;-79
2023/09/25 10:17:41;;;;;;;1.47;0.90;;;22.50;82.80;;;;;;4975031;28;20520;-82
2023/09/25 10:20:33;;;;;;;1.50;1.00;;;22.60;81.20;;;;;;4971697;28;20985;-81
2023/09/25 10:23:04;;;;;;;1.50;0.90;;;22.50;81.00;;;;;;4957108;28;20479;-82
2023/09/25 10:25:33;;;;;;;1.47;0.80;;;22.60;80.30;;;;;;4974139;28;20490;-82
2023/09/25 10:28:02;;;;;;;1.50;1.00;;;22.70;81.30;;;;;;4973417;28;20574;-81
2023/09/25 10:30:29;;;;;;;1.43;0.90;;;22.80;80.70;;;;;;4972147;28;20533;-82
2023/09/25 10:32:57;;;;;;;1.50;0.90;;;22.90;80.10;;;;;;4982845;28;20543;-80
2023/09/25 10:35:38;;;;;;;1.47;0.90;;;23.00;80.20;;;;;;4973658;28;20574;-80
2023/09/25 10:38:21;;;;;;;2.37;2.17;;;23.00;81.30;;;;;;4984745;28;20535;-83
2023/09/25 10:40:50;;;;;;;1.50;0.90;;;23.20;80.70;;;;;;4965533;28;20470;-81
2023/09/25 10:43:20;;;;;;;1.43;0.80;;;23.30;80.50;;;;;;4965473;28;20482;-82
2023/09/25 10:45:49;;;;;;;1.47;0.83;;;23.50;79.00;;;;;;4972930;28;20480;-81
2023/09/25 10:48:17;;;;;;;1.50;0.90;;;23.60;79.40;;;;;;4975451;28;21044;-83
2023/09/25 10:50:45;;;;;;;1.50;1.00;;;23.70;79.60;;;;;;4967569;28;20882;-82
2023/09/25 10:53:12;;;;;;;1.50;0.90;;;23.90;76.60;;;;;;4960202;28;20979;-81
2023/09/25 10:55:39;;;;;;;1.40;0.90;;;23.80;76.70;;;;;;4972809;28;20516;-83
2023/09/25 10:58:12;;;;;;;1.47;0.80;;;23.80;78.00;;;;;;4973571;28;20486;-82
2023/09/25 11:00:51;;;;;;;1.50;0.90;;;23.90;78.50;;;;;;4969085;28;20496;-83
2023/09/25 11:03:27;;;;;;;1.50;0.80;;;23.90;77.50;;;;;;4967819;28;20532;-83
2023/09/25 11:06:02;;;;;;;1.43;0.90;;;23.90;77.20;;;;;;4965580;28;20466;-83
2023/09/25 11:08:35;;;;;;;1.47;0.83;;;24.00;79.00;;;;;;4982684;28;20478;-82
2023/09/25 11:11:03;;;;;;;1.43;0.90;;;24.00;76.70;;;;;;4964029;28;20462;-83
2023/09/25 11:13:30;;;;;;;1.50;1.10;;;24.00;75.10;;;;;;4978406;28;20466;-82
2023/09/25 11:16:10;;;;;;;1.47;0.87;;;24.10;76.50;;;;;;4963198;28;20988;-84
2023/09/25 11:18:37;;;;;;;1.47;0.80;;;24.20;76.60;;;;;;4977393;28;20996;-83
2023/09/25 11:21:05;;;;;;;1.43;0.90;;;24.30;78.70;;;;;;4959477;28;20512;-81
2023/09/25 11:23:35;;;;;;;1.50;0.90;;;24.50;77.50;;;;;;4977392;28;21260;-82
2023/09/25 11:26:07;;;;;;;1.50;0.90;;;24.40;75.80;;;;;;4960388;28;20551;-82
2023/09/25 11:28:36;;;;;;;1.47;0.90;;;24.40;75.40;;;;;;4960831;28;20568;-82
2023/09/25 11:31:37;;;;;;;1.50;0.87;;;24.50;76.40;;;;;;4975657;28;20442;-85
2023/09/25 11:34:07;;;;;;;1.47;0.90;;;24.50;74.80;;;;;;4984885;28;20485;-83
2023/09/25 11:36:59;;;;;;;1.47;0.90;;;24.50;75.60;;;;;;4967601;28;20488;-82
2023/09/25 11:39:26;;;;;;;1.47;0.80;;;24.40;75.20;;;;;;4978278;28;20466;-82
2023/09/25 11:41:54;;;;;;;1.47;0.90;;;24.40;76.30;;;;;;4969243;28;20484;-83
2023/09/25 11:44:20;;;;;;;1.50;0.83;;;24.40;74.50;;;;;;4978235;28;20480;-82
2023/09/25 11:46:49;;;;;;;1.50;0.90;;;24.40;73.40;;;;;;4963186;28;20997;-81
2023/09/25 11:49:16;;;;;;;1.43;0.90;;;24.40;73.80;;;;;;4979273;28;20547;-80
2023/09/25 11:51:43;;;;;;;1.50;1.00;;;24.30;73.40;;;;;;4963802;28;20516;-81
2023/09/25 11:54:11;;;;;;;1.50;0.90;;;24.40;73.80;;;;;;4978242;28;20478;-81
2023/09/25 11:56:37;;;;;;;1.47;0.90;;;24.50;74.40;;;;;;4964018;28;20543;-81
2023/09/25 11:59:04;;;;;;;1.50;0.80;;;24.60;74.10;;;;;;4979292;28;20462;-81
2023/09/25 12:01:31;;;;;;;1.47;0.83;;;24.70;75.00;;;;;;4955107;28;20646;-81
2023/09/25 12:03:59;;;;;;;1.47;0.80;;;24.80;73.40;;;;;;4975787;28;21052;-82
2023/09/25 12:06:28;;;;;;;1.50;0.80;;;25.00;74.30;;;;;;4966949;28;20869;-80
2023/09/25 12:08:58;;;;;;;3.20;3.00;;;25.00;73.10;;;;;;4979547;28;20496;-81
2023/09/25 12:11:39;;;;;;;1.50;0.87;;;25.10;73.70;;;;;;4964680;28;20477;-81
2023/09/25 12:14:06;;;;;;;1.50;0.90;;;25.30;73.80;;;;;;4977468;28;20490;-80
2023/09/25 12:16:33;;;;;;;1.50;0.80;;;25.30;73.40;;;;;;4960357;28;20487;-80
2023/09/25 12:19:04;;;;;;;1.50;0.90;;;25.50;73.60;;;;;;4985973;28;20612;-80
2023/09/25 12:21:30;;;;;;;1.47;0.80;;;25.60;71.80;;;;;;4970668;28;20557;-80
2023/09/25 12:23:57;;;;;;;1.47;0.90;;;25.70;72.00;;;;;;4983122;28;20880;-81
2023/09/25 12:26:24;;;;;;;1.50;0.80;;;25.60;72.60;;;;;;4966083;28;20476;-82
2023/09/25 12:28:51;;;;;;;1.43;0.80;;;25.50;72.70;;;;;;4981191;28;20490;-81
2023/09/25 12:31:18;;;;;;;1.50;0.80;;;25.50;73.40;;;;;;4962583;28;20526;-80
2023/09/25 12:33:51;;;;;;;1.40;0.80;;;25.20;73.20;;;;;;4973415;28;20494;-81
2023/09/25 12:39:00;;;;;;;1.50;0.83;;;25.00;74.30;;;;;;4970925;28;20552;-82
2023/09/25 12:41:31;;;;;;;1.40;0.80;;;25.00;73.70;;;;;;4964186;28;20504;-80
2023/09/25 12:50:17;;;;;;;1.47;0.87;;;25.30;71.70;;;;;;4856923;29;20576;-82
2023/09/25 12:52:46;;;;;;;1.47;0.80;;;25.40;72.90;;;;;;4968350;28;20519;-81
2023/09/25 12:55:13;;;;;;;1.50;0.83;;;25.60;74.80;;;;;;4970205;28;20873;-81
2023/09/25 12:57:46;;;;;;;1.47;0.80;;;25.70;71.70;;;;;;4971386;28;20502;-81
2023/09/25 13:00:16;;;;;;;1.40;0.80;;;25.60;72.00;;;;;;4968851;28;20992;-82
2023/09/25 13:02:42;;;;;;;1.50;0.90;;;25.50;72.00;;;;;;4975520;28;20484;-80
2023/09/25 13:05:10;;;;;;;1.43;0.83;;;25.30;71.90;;;;;;4980205;28;20572;-84